sensor_id;sensor_type;location;lat;lon;timestamp;temperature;humidity
33109;HTU21D;19481;51.118;6.940;2024-02-26T00:00:42;8.35;58.73
33109;HTU21D;19481;51.118;6.940;2024-02-26T00:05:45;8.30;59.09
33109;HTU21D;19481;51.118;6.940;2024-02-26T00:10:46;8.29;59.06
33109;HTU21D;19481;51.118;6.940;2024-02-26T00:15:48;8.31;59.05
33109;HTU21D;19481;51.118;6.940;2024-02-26T00:20:51;8.27;59.57
33109;HTU21D;19481;51.118;6.940;2024-02-26T00:25:52;8.22;59.76
33109;HTU21D;19481;51.118;6.940;2024-02-26T00:30:54;8.20;59.91
33109;HTU21D;19481;51.118;6.940;2024-02-26T00:35:57;8.14;60.04
33109;HTU21D;19481;51.118;6.940;2024-02-26T00:40:59;8.12;60.21
33109;HTU21D;19481;51.118;6.940;2024-02-26T00:46:01;8.12;60.27
33109;HTU21D;19481;51.118;6.940;2024-02-26T00:51:05;8.05;60.83
33109;HTU21D;19481;51.118;6.940;2024-02-26T00:56:08;8.06;60.47
33109;HTU21D;19481;51.118;6.940;2024-02-26T01:01:09;8.04;60.51
33109;HTU21D;19481;51.118;6.940;2024-02-26T01:06:12;8.03;60.60
33109;HTU21D;19481;51.118;6.940;2024-02-26T01:11:14;8.06;60.10
33109;HTU21D;19481;51.118;6.940;2024-02-26T01:16:15;8.08;60.47
33109;HTU21D;19481;51.118;6.940;2024-02-26T01:21:18;8.08;60.55
33109;HTU21D;19481;51.118;6.940;2024-02-26T01:26:20;8.09;60.57
33109;HTU21D;19481;51.118;6.940;2024-02-26T01:31:22;8.00;61.12
33109;HTU21D;19481;51.118;6.940;2024-02-26T01:36:25;7.86;62.04
33109;HTU21D;19481;51.118;6.940;2024-02-26T01:41:26;7.79;62.38
33109;HTU21D;19481;51.118;6.940;2024-02-26T01:46:29;7.69;62.82
33109;HTU21D;19481;51.118;6.940;2024-02-26T01:51:33;7.62;63.29
33109;HTU21D;19481;51.118;6.940;2024-02-26T01:56:35;7.50;64.08
33109;HTU21D;19481;51.118;6.940;2024-02-26T02:01:39;7.43;64.45
33109;HTU21D;19481;51.118;6.940;2024-02-26T02:06:46;7.34;65.70
33109;HTU21D;19481;51.118;6.940;2024-02-26T02:11:48;7.28;65.62
33109;HTU21D;19481;51.118;6.940;2024-02-26T02:16:50;7.24;65.75
33109;HTU21D;19481;51.118;6.940;2024-02-26T02:21:53;7.16;65.91
33109;HTU21D;19481;51.118;6.940;2024-02-26T02:26:55;7.12;66.42
33109;HTU21D;19481;51.118;6.940;2024-02-26T02:31:57;7.11;66.61
33109;HTU21D;19481;51.118;6.940;2024-02-26T02:37:00;7.12;66.06
33109;HTU21D;19481;51.118;6.940;2024-02-26T02:42:02;7.10;66.56
33109;HTU21D;19481;51.118;6.940;2024-02-26T02:47:03;7.09;66.69
33109;HTU21D;19481;51.118;6.940;2024-02-26T02:52:06;7.10;66.14
33109;HTU21D;19481;51.118;6.940;2024-02-26T02:57:08;7.08;66.67
33109;HTU21D;19481;51.118;6.940;2024-02-26T03:02:09;7.11;66.59
33109;HTU21D;19481;51.118;6.940;2024-02-26T03:07:12;7.09;66.89
33109;HTU21D;19481;51.118;6.940;2024-02-26T03:12:14;7.05;67.33
33109;HTU21D;19481;51.118;6.940;2024-02-26T03:17:15;7.03;67.29
33109;HTU21D;19481;51.118;6.940;2024-02-26T03:22:18;7.04;67.91
33109;HTU21D;19481;51.118;6.940;2024-02-26T03:27:20;7.04;67.27
33109;HTU21D;19481;51.118;6.940;2024-02-26T03:32:21;7.05;67.14
33109;HTU21D;19481;51.118;6.940;2024-02-26T03:37:24;7.04;66.78
33109;HTU21D;19481;51.118;6.940;2024-02-26T03:42:26;7.05;67.49
33109;HTU21D;19481;51.118;6.940;2024-02-26T03:47:27;7.09;68.01
33109;HTU21D;19481;51.118;6.940;2024-02-26T03:52:30;7.09;66.92
33109;HTU21D;19481;51.118;6.940;2024-02-26T03:57:32;7.09;67.39
33109;HTU21D;19481;51.118;6.940;2024-02-26T04:02:34;7.11;67.45
33109;HTU21D;19481;51.118;6.940;2024-02-26T04:07:36;7.13;66.81
33109;HTU21D;19481;51.118;6.940;2024-02-26T04:12:38;7.12;67.15
33109;HTU21D;19481;51.118;6.940;2024-02-26T04:17:41;7.10;67.46
33109;HTU21D;19481;51.118;6.940;2024-02-26T04:22:44;7.13;67.16
33109;HTU21D;19481;51.118;6.940;2024-02-26T04:27:46;7.16;67.22
33109;HTU21D;19481;51.118;6.940;2024-02-26T04:32:47;7.18;66.99
33109;HTU21D;19481;51.118;6.940;2024-02-26T04:37:50;7.18;66.80
33109;HTU21D;19481;51.118;6.940;2024-02-26T04:42:52;7.17;67.07
33109;HTU21D;19481;51.118;6.940;2024-02-26T04:47:54;7.18;66.92
33109;HTU21D;19481;51.118;6.940;2024-02-26T04:52:57;7.12;67.22
33109;HTU21D;19481;51.118;6.940;2024-02-26T04:57:58;7.09;68.00
33109;HTU21D;19481;51.118;6.940;2024-02-26T05:03:00;7.01;68.39
33109;HTU21D;19481;51.118;6.940;2024-02-26T05:08:04;7.02;68.03
33109;HTU21D;19481;51.118;6.940;2024-02-26T05:13:05;6.96;68.88
33109;HTU21D;19481;51.118;6.940;2024-02-26T05:18:07;6.97;68.92
33109;HTU21D;19481;51.118;6.940;2024-02-26T05:23:10;6.97;68.72
33109;HTU21D;19481;51.118;6.940;2024-02-26T05:28:12;6.96;68.86
33109;HTU21D;19481;51.118;6.940;2024-02-26T05:33:15;6.95;69.19
33109;HTU21D;19481;51.118;6.940;2024-02-26T05:38:18;6.91;68.94
33109;HTU21D;19481;51.118;6.940;2024-02-26T05:43:20;6.90;69.29
33109;HTU21D;19481;51.118;6.940;2024-02-26T05:48:22;6.87;69.79
33109;HTU21D;19481;51.118;6.940;2024-02-26T05:53:25;6.86;69.46
33109;HTU21D;19481;51.118;6.940;2024-02-26T05:58:26;6.89;69.69
33109;HTU21D;19481;51.118;6.940;2024-02-26T06:03:28;6.82;69.69
33109;HTU21D;19481;51.118;6.940;2024-02-26T06:08:32;6.83;69.74
33109;HTU21D;19481;51.118;6.940;2024-02-26T06:13:33;6.81;70.21
33109;HTU21D;19481;51.118;6.940;2024-02-26T06:18:35;6.81;70.51
33109;HTU21D;19481;51.118;6.940;2024-02-26T06:23:38;6.78;70.73
33109;HTU21D;19481;51.118;6.940;2024-02-26T06:28:40;6.81;70.77
33109;HTU21D;19481;51.118;6.940;2024-02-26T06:33:41;6.82;70.76
33109;HTU21D;19481;51.118;6.940;2024-02-26T06:38:44;6.83;70.35
33109;HTU21D;19481;51.118;6.940;2024-02-26T06:43:46;6.73;70.90
33109;HTU21D;19481;51.118;6.940;2024-02-26T06:48:48;6.74;71.15
33109;HTU21D;19481;51.118;6.940;2024-02-26T06:53:51;6.76;70.80
33109;HTU21D;19481;51.118;6.940;2024-02-26T06:58:52;6.68;71.51
33109;HTU21D;19481;51.118;6.940;2024-02-26T07:03:54;6.68;71.71
33109;HTU21D;19481;51.118;6.940;2024-02-26T07:08:57;6.67;71.57
33109;HTU21D;19481;51.118;6.940;2024-02-26T07:13:58;6.64;71.87
33109;HTU21D;19481;51.118;6.940;2024-02-26T07:19:01;6.60;72.62
33109;HTU21D;19481;51.118;6.940;2024-02-26T07:24:04;6.60;71.99
33109;HTU21D;19481;51.118;6.940;2024-02-26T07:29:06;6.65;71.68
33109;HTU21D;19481;51.118;6.940;2024-02-26T07:34:08;6.63;72.21
33109;HTU21D;19481;51.118;6.940;2024-02-26T07:39:11;6.69;71.38
33109;HTU21D;19481;51.118;6.940;2024-02-26T07:44:12;6.66;72.29
33109;HTU21D;19481;51.118;6.940;2024-02-26T07:49:14;6.69;71.49
33109;HTU21D;19481;51.118;6.940;2024-02-26T07:54:17;6.72;71.10
33109;HTU21D;19481;51.118;6.940;2024-02-26T07:59:19;6.69;71.82
33109;HTU21D;19481;51.118;6.940;2024-02-26T08:04:21;6.71;71.38
33109;HTU21D;19481;51.118;6.940;2024-02-26T08:09:24;6.71;71.31
33109;HTU21D;19481;51.118;6.940;2024-02-26T08:14:25;6.70;71.66
33109;HTU21D;19481;51.118;6.940;2024-02-26T08:19:27;6.72;72.06
33109;HTU21D;19481;51.118;6.940;2024-02-26T08:24:30;6.75;71.45
33109;HTU21D;19481;51.118;6.940;2024-02-26T08:29:31;6.74;71.74
33109;HTU21D;19481;51.118;6.940;2024-02-26T08:34:33;6.73;71.62
33109;HTU21D;19481;51.118;6.940;2024-02-26T08:39:36;6.76;71.19
33109;HTU21D;19481;51.118;6.940;2024-02-26T08:44:38;6.76;71.77
33109;HTU21D;19481;51.118;6.940;2024-02-26T08:49:42;6.73;71.55
33109;HTU21D;19481;51.118;6.940;2024-02-26T08:54:45;6.78;71.48
33109;HTU21D;19481;51.118;6.940;2024-02-26T08:59:47;6.79;71.74
33109;HTU21D;19481;51.118;6.940;2024-02-26T09:04:49;6.79;71.53
33109;HTU21D;19481;51.118;6.940;2024-02-26T09:09:52;6.82;71.77
33109;HTU21D;19481;51.118;6.940;2024-02-26T09:14:54;6.81;72.26
33109;HTU21D;19481;51.118;6.940;2024-02-26T09:19:57;6.84;72.45
33109;HTU21D;19481;51.118;6.940;2024-02-26T09:25:00;6.85;73.30
33109;HTU21D;19481;51.118;6.940;2024-02-26T09:30:02;6.87;72.23
33109;HTU21D;19481;51.118;6.940;2024-02-26T09:35:05;6.88;71.64
33109;HTU21D;19481;51.118;6.940;2024-02-26T09:40:09;6.88;71.64
33109;HTU21D;19481;51.118;6.940;2024-02-26T09:45:18;6.91;71.45
33109;HTU21D;19481;51.118;6.940;2024-02-26T09:50:20;6.88;72.07
33109;HTU21D;19481;51.118;6.940;2024-02-26T09:55:24;6.94;71.31
33109;HTU21D;19481;51.118;6.940;2024-02-26T10:00:27;6.94;71.18
33109;HTU21D;19481;51.118;6.940;2024-02-26T10:05:33;6.99;71.60
33109;HTU21D;19481;51.118;6.940;2024-02-26T10:10:37;6.98;71.51
33109;HTU21D;19481;51.118;6.940;2024-02-26T10:15:40;6.97;71.80
33109;HTU21D;19481;51.118;6.940;2024-02-26T10:20:41;6.96;71.94
33109;HTU21D;19481;51.118;6.940;2024-02-26T10:25:53;7.00;71.22
33109;HTU21D;19481;51.118;6.940;2024-02-26T10:30:55;7.10;71.19
33109;HTU21D;19481;51.118;6.940;2024-02-26T10:35:57;7.18;71.12
33109;HTU21D;19481;51.118;6.940;2024-02-26T10:41:01;7.18;71.22
33109;HTU21D;19481;51.118;6.940;2024-02-26T10:46:03;7.24;71.98
33109;HTU21D;19481;51.118;6.940;2024-02-26T10:51:05;7.27;71.57
33109;HTU21D;19481;51.118;6.940;2024-02-26T10:56:10;7.38;70.83
33109;HTU21D;19481;51.118;6.940;2024-02-26T11:01:13;7.44;70.93
33109;HTU21D;19481;51.118;6.940;2024-02-26T11:06:15;7.58;71.44
33109;HTU21D;19481;51.118;6.940;2024-02-26T11:11:18;7.72;70.37
33109;HTU21D;19481;51.118;6.940;2024-02-26T11:16:21;7.74;70.83
33109;HTU21D;19481;51.118;6.940;2024-02-26T11:21:23;7.74;71.00
33109;HTU21D;19481;51.118;6.940;2024-02-26T11:26:31;7.78;70.18
33109;HTU21D;19481;51.118;6.940;2024-02-26T11:31:33;7.84;70.03
33109;HTU21D;19481;51.118;6.940;2024-02-26T11:36:36;7.81;70.39
33109;HTU21D;19481;51.118;6.940;2024-02-26T11:41:39;7.82;70.18
33109;HTU21D;19481;51.118;6.940;2024-02-26T11:46:42;7.87;70.33
33109;HTU21D;19481;51.118;6.940;2024-02-26T11:51:50;7.90;70.03
33109;HTU21D;19481;51.118;6.940;2024-02-26T11:56:53;8.02;70.23
33109;HTU21D;19481;51.118;6.940;2024-02-26T12:01:55;8.13;69.94
33109;HTU21D;19481;51.118;6.940;2024-02-26T12:07:00;8.13;70.51
33109;HTU21D;19481;51.118;6.940;2024-02-26T12:12:05;8.09;70.84
33109;HTU21D;19481;51.118;6.940;2024-02-26T12:17:08;8.19;70.90
33109;HTU21D;19481;51.118;6.940;2024-02-26T12:22:16;8.16;71.03
33109;HTU21D;19481;51.118;6.940;2024-02-26T12:27:19;8.21;70.55
33109;HTU21D;19481;51.118;6.940;2024-02-26T12:32:21;8.16;70.69
33109;HTU21D;19481;51.118;6.940;2024-02-26T12:37:23;8.17;70.73
33109;HTU21D;19481;51.118;6.940;2024-02-26T12:42:26;8.20;70.42
33109;HTU21D;19481;51.118;6.940;2024-02-26T12:47:28;8.17;70.83
33109;HTU21D;19481;51.118;6.940;2024-02-26T12:52:31;8.23;70.35
33109;HTU21D;19481;51.118;6.940;2024-02-26T12:57:35;8.23;69.87
33109;HTU21D;19481;51.118;6.940;2024-02-26T13:02:37;8.29;70.42
33109;HTU21D;19481;51.118;6.940;2024-02-26T13:07:43;8.35;69.48
33109;HTU21D;19481;51.118;6.940;2024-02-26T13:12:49;8.37;69.25
33109;HTU21D;19481;51.118;6.940;2024-02-26T13:17:51;8.31;70.19
33109;HTU21D;19481;51.118;6.940;2024-02-26T13:23:00;8.31;69.63
33109;HTU21D;19481;51.118;6.940;2024-02-26T13:28:07;8.32;69.72
33109;HTU21D;19481;51.118;6.940;2024-02-26T13:33:11;8.32;70.26
33109;HTU21D;19481;51.118;6.940;2024-02-26T13:38:13;8.39;70.38
33109;HTU21D;19481;51.118;6.940;2024-02-26T13:43:16;8.45;70.03
33109;HTU21D;19481;51.118;6.940;2024-02-26T13:48:18;8.58;70.17
33109;HTU21D;19481;51.118;6.940;2024-02-26T13:53:19;8.51;70.29
33109;HTU21D;19481;51.118;6.940;2024-02-26T13:58:25;8.52;70.47
33109;HTU21D;19481;51.118;6.940;2024-02-26T14:03:27;8.50;70.94
33109;HTU21D;19481;51.118;6.940;2024-02-26T14:08:29;8.49;71.16
33109;HTU21D;19481;51.118;6.940;2024-02-26T14:13:32;8.52;70.71
33109;HTU21D;19481;51.118;6.940;2024-02-26T14:18:33;8.42;71.46
33109;HTU21D;19481;51.118;6.940;2024-02-26T14:23:35;8.49;71.60
33109;HTU21D;19481;51.118;6.940;2024-02-26T14:28:38;8.53;71.27
33109;HTU21D;19481;51.118;6.940;2024-02-26T14:33:40;8.58;71.66
33109;HTU21D;19481;51.118;6.940;2024-02-26T14:38:42;8.65;71.37
33109;HTU21D;19481;51.118;6.940;2024-02-26T14:43:44;8.82;70.73
33109;HTU21D;19481;51.118;6.940;2024-02-26T14:48:46;8.85;70.96
33109;HTU21D;19481;51.118;6.940;2024-02-26T14:53:48;8.88;70.93
33109;HTU21D;19481;51.118;6.940;2024-02-26T14:58:51;8.96;70.46
33109;HTU21D;19481;51.118;6.940;2024-02-26T15:03:52;8.89;71.19
33109;HTU21D;19481;51.118;6.940;2024-02-26T15:08:55;8.88;71.19
33109;HTU21D;19481;51.118;6.940;2024-02-26T15:13:58;8.77;71.35
33109;HTU21D;19481;51.118;6.940;2024-02-26T15:19:00;8.81;71.13
33109;HTU21D;19481;51.118;6.940;2024-02-26T15:24:03;8.73;71.04
33109;HTU21D;19481;51.118;6.940;2024-02-26T15:29:06;8.71;70.87
33109;HTU21D;19481;51.118;6.940;2024-02-26T15:34:09;8.78;70.70
33109;HTU21D;19481;51.118;6.940;2024-02-26T15:39:10;8.76;69.69
33109;HTU21D;19481;51.118;6.940;2024-02-26T15:44:13;8.79;68.78
33109;HTU21D;19481;51.118;6.940;2024-02-26T15:49:15;8.70;69.20
33109;HTU21D;19481;51.118;6.940;2024-02-26T15:54:16;8.61;69.74
33109;HTU21D;19481;51.118;6.940;2024-02-26T15:59:19;8.52;69.75
33109;HTU21D;19481;51.118;6.940;2024-02-26T16:04:21;8.46;69.93
33109;HTU21D;19481;51.118;6.940;2024-02-26T16:09:23;8.39;70.16
33109;HTU21D;19481;51.118;6.940;2024-02-26T16:14:36;8.37;69.93
33109;HTU21D;19481;51.118;6.940;2024-02-26T16:19:42;8.32;70.07
33109;HTU21D;19481;51.118;6.940;2024-02-26T16:24:43;8.30;69.68
33109;HTU21D;19481;51.118;6.940;2024-02-26T16:29:46;8.21;69.41
33109;HTU21D;19481;51.118;6.940;2024-02-26T16:34:48;8.18;69.71
33109;HTU21D;19481;51.118;6.940;2024-02-26T16:39:49;8.17;69.16
33109;HTU21D;19481;51.118;6.940;2024-02-26T16:44:53;8.16;68.57
33109;HTU21D;19481;51.118;6.940;2024-02-26T16:49:56;8.13;68.34
33109;HTU21D;19481;51.118;6.940;2024-02-26T16:54:57;8.09;68.26
33109;HTU21D;19481;51.118;6.940;2024-02-26T17:00:01;8.06;67.99
33109;HTU21D;19481;51.118;6.940;2024-02-26T17:05:04;8.04;67.60
33109;HTU21D;19481;51.118;6.940;2024-02-26T17:10:06;7.99;67.72
33109;HTU21D;19481;51.118;6.940;2024-02-26T17:15:09;8.00;67.16
33109;HTU21D;19481;51.118;6.940;2024-02-26T17:20:11;8.01;67.23
33109;HTU21D;19481;51.118;6.940;2024-02-26T17:25:14;8.00;67.07
33109;HTU21D;19481;51.118;6.940;2024-02-26T17:30:18;8.01;66.56
33109;HTU21D;19481;51.118;6.940;2024-02-26T17:35:19;7.99;66.68
33109;HTU21D;19481;51.118;6.940;2024-02-26T17:40:21;8.04;66.14
33109;HTU21D;19481;51.118;6.940;2024-02-26T17:45:24;8.04;65.67
33109;HTU21D;19481;51.118;6.940;2024-02-26T17:50:26;8.04;65.47
33109;HTU21D;19481;51.118;6.940;2024-02-26T17:55:28;8.05;65.42
33109;HTU21D;19481;51.118;6.940;2024-02-26T18:00:31;8.02;65.51
33109;HTU21D;19481;51.118;6.940;2024-02-26T18:05:33;8.01;65.59
33109;HTU21D;19481;51.118;6.940;2024-02-26T18:10:35;7.99;65.78
33109;HTU21D;19481;51.118;6.940;2024-02-26T18:15:38;7.97;65.79
33109;HTU21D;19481;51.118;6.940;2024-02-26T18:20:39;7.96;65.75
33109;HTU21D;19481;51.118;6.940;2024-02-26T18:25:41;7.93;65.97
33109;HTU21D;19481;51.118;6.940;2024-02-26T18:30:44;7.91;66.04
33109;HTU21D;19481;51.118;6.940;2024-02-26T18:35:47;7.87;66.28
33109;HTU21D;19481;51.118;6.940;2024-02-26T18:40:48;7.85;66.40
33109;HTU21D;19481;51.118;6.940;2024-02-26T18:45:51;7.81;66.78
33109;HTU21D;19481;51.118;6.940;2024-02-26T18:50:57;7.77;67.13
33109;HTU21D;19481;51.118;6.940;2024-02-26T18:55:59;7.73;67.04
33109;HTU21D;19481;51.118;6.940;2024-02-26T19:01:02;7.70;67.20
33109;HTU21D;19481;51.118;6.940;2024-02-26T19:06:04;7.70;67.21
33109;HTU21D;19481;51.118;6.940;2024-02-26T19:11:09;7.68;67.17
33109;HTU21D;19481;51.118;6.940;2024-02-26T19:16:13;7.65;67.30
33109;HTU21D;19481;51.118;6.940;2024-02-26T19:21:14;7.64;67.40
33109;HTU21D;19481;51.118;6.940;2024-02-26T19:26:16;7.67;67.19
33109;HTU21D;19481;51.118;6.940;2024-02-26T19:31:19;7.65;66.97
33109;HTU21D;19481;51.118;6.940;2024-02-26T19:36:20;7.67;67.16
33109;HTU21D;19481;51.118;6.940;2024-02-26T19:41:22;7.69;66.96
33109;HTU21D;19481;51.118;6.940;2024-02-26T19:46:25;7.74;66.31
33109;HTU21D;19481;51.118;6.940;2024-02-26T19:51:27;7.74;66.32
33109;HTU21D;19481;51.118;6.940;2024-02-26T19:56:28;7.77;66.04
33109;HTU21D;19481;51.118;6.940;2024-02-26T20:01:31;7.82;65.66
33109;HTU21D;19481;51.118;6.940;2024-02-26T20:06:33;7.81;65.78
33109;HTU21D;19481;51.118;6.940;2024-02-26T20:11:35;7.85;65.60
33109;HTU21D;19481;51.118;6.940;2024-02-26T20:16:38;7.85;65.71
33109;HTU21D;19481;51.118;6.940;2024-02-26T20:21:40;7.88;65.43
33109;HTU21D;19481;51.118;6.940;2024-02-26T20:26:42;7.89;65.35
33109;HTU21D;19481;51.118;6.940;2024-02-26T20:31:46;7.89;65.56
33109;HTU21D;19481;51.118;6.940;2024-02-26T20:36:48;7.88;65.56
33109;HTU21D;19481;51.118;6.940;2024-02-26T20:41:50;7.88;65.62
33109;HTU21D;19481;51.118;6.940;2024-02-26T20:46:53;7.87;65.60
33109;HTU21D;19481;51.118;6.940;2024-02-26T20:52:00;7.90;65.47
33109;HTU21D;19481;51.118;6.940;2024-02-26T20:57:01;7.91;65.62
33109;HTU21D;19481;51.118;6.940;2024-02-26T21:02:05;7.86;65.75
33109;HTU21D;19481;51.118;6.940;2024-02-26T21:07:07;7.88;65.70
33109;HTU21D;19481;51.118;6.940;2024-02-26T21:12:08;7.91;65.56
33109;HTU21D;19481;51.118;6.940;2024-02-26T21:17:12;7.88;65.67
33109;HTU21D;19481;51.118;6.940;2024-02-26T21:22:14;7.87;65.72
33109;HTU21D;19481;51.118;6.940;2024-02-26T21:27:15;7.89;65.86
33109;HTU21D;19481;51.118;6.940;2024-02-26T21:32:18;7.87;66.01
33109;HTU21D;19481;51.118;6.940;2024-02-26T21:37:20;7.85;66.05
33109;HTU21D;19481;51.118;6.940;2024-02-26T21:42:21;7.86;65.85
33109;HTU21D;19481;51.118;6.940;2024-02-26T21:47:24;7.89;65.73
33109;HTU21D;19481;51.118;6.940;2024-02-26T21:52:26;7.90;65.62
33109;HTU21D;19481;51.118;6.940;2024-02-26T21:57:28;7.88;65.76
33109;HTU21D;19481;51.118;6.940;2024-02-26T22:02:31;7.90;65.77
33109;HTU21D;19481;51.118;6.940;2024-02-26T22:07:32;7.89;65.77
33109;HTU21D;19481;51.118;6.940;2024-02-26T22:12:34;7.90;65.61
33109;HTU21D;19481;51.118;6.940;2024-02-26T22:17:37;7.89;65.77
33109;HTU21D;19481;51.118;6.940;2024-02-26T22:22:41;7.88;65.75
33109;HTU21D;19481;51.118;6.940;2024-02-26T22:27:42;7.86;65.88
33109;HTU21D;19481;51.118;6.940;2024-02-26T22:32:47;7.84;66.11
33109;HTU21D;19481;51.118;6.940;2024-02-26T22:37:48;7.82;66.44
33109;HTU21D;19481;51.118;6.940;2024-02-26T22:42:50;7.77;66.62
33109;HTU21D;19481;51.118;6.940;2024-02-26T22:47:57;7.77;66.58
33109;HTU21D;19481;51.118;6.940;2024-02-26T22:52:58;7.73;66.61
33109;HTU21D;19481;51.118;6.940;2024-02-26T22:58:00;7.73;66.79
33109;HTU21D;19481;51.118;6.940;2024-02-26T23:03:03;7.68;67.16
33109;HTU21D;19481;51.118;6.940;2024-02-26T23:08:05;7.59;67.78
33109;HTU21D;19481;51.118;6.940;2024-02-26T23:13:07;7.53;68.27
33109;HTU21D;19481;51.118;6.940;2024-02-26T23:18:10;7.50;68.42
33109;HTU21D;19481;51.118;6.940;2024-02-26T23:23:12;7.45;68.33
33109;HTU21D;19481;51.118;6.940;2024-02-26T23:28:14;7.45;68.70
33109;HTU21D;19481;51.118;6.940;2024-02-26T23:33:17;7.39;68.81
33109;HTU21D;19481;51.118;6.940;2024-02-26T23:38:18;7.29;69.60
33109;HTU21D;19481;51.118;6.940;2024-02-26T23:43:20;7.22;69.97
33109;HTU21D;19481;51.118;6.940;2024-02-26T23:48:23;7.18;70.34
33109;HTU21D;19481;51.118;6.940;2024-02-26T23:53:24;7.09;71.19
33109;HTU21D;19481;51.118;6.940;2024-02-26T23:58:26;7.04;71.32
